Time;durP1;ratioP1;P1;durP2;ratioP2;P2;SDS_P1;SDS_P2;PMS_P1;PMS_P2;Temp;Humidity;BMP_temperature;BMP_pressure;BME280_temperature;BME280_humidity;BME280_pressure;Samples;Min_cycle;Max_cycle;Signal;HPM_P1;HPM_P2
2021/11/29 00:02:24;;;;;;;9.20;5.03;;;;;;;;;;5053456;28;20036;-64
2021/11/29 00:04:50;;;;;;;9.20;4.55;;;;;;;;;;5053255;28;20079;-64
2021/11/29 00:07:17;;;;;;;8.13;4.85;;;;;;;;;;5053842;28;20057;-64
2021/11/29 00:09:43;;;;;;;8.15;4.50;;;;;;;;;;5035659;28;20036;-64
2021/11/29 00:12:09;;;;;;;6.18;3.55;;;;;;;;;;5053512;28;20040;-66
2021/11/29 00:14:36;;;;;;;6.60;2.72;;;;;;;;;;5053296;28;20103;-64
2021/11/29 00:17:04;;;;;;;4.45;3.22;;;;;;;;;;5053434;28;20028;-65
2021/11/29 00:19:31;;;;;;;8.80;4.00;;;;;;;;;;5053441;28;20021;-64
2021/11/29 00:21:57;;;;;;;6.40;3.90;;;;;;;;;;5053304;28;20035;-64
2021/11/29 00:24:23;;;;;;;9.43;5.15;;;;;;;;;;5052863;28;20029;-66
2021/11/29 00:26:50;;;;;;;9.52;5.32;;;;;;;;;;5052834;28;20544;-65
2021/11/29 00:29:16;;;;;;;10.15;5.88;;;;;;;;;;5053259;28;20029;-63
2021/11/29 00:31:42;;;;;;;13.00;6.50;;;;;;;;;;5053192;28;20021;-66
2021/11/29 00:34:09;;;;;;;10.95;6.05;;;;;;;;;;5035330;28;20130;-65
2021/11/29 00:36:36;;;;;;;10.10;5.43;;;;;;;;;;5053198;28;20029;-64
2021/11/29 00:39:02;;;;;;;6.32;3.70;;;;;;;;;;5034820;28;20116;-64
2021/11/29 00:41:28;;;;;;;6.45;3.88;;;;;;;;;;5035157;28;20029;-64
2021/11/29 00:43:54;;;;;;;6.05;3.05;;;;;;;;;;5052699;28;20049;-65
2021/11/29 00:46:20;;;;;;;5.22;3.05;;;;;;;;;;5052926;28;20033;-64
2021/11/29 00:48:47;;;;;;;6.60;3.42;;;;;;;;;;5052944;28;20033;-64
2021/11/29 00:51:13;;;;;;;6.07;3.00;;;;;;;;;;5052891;28;20029;-65
2021/11/29 00:53:39;;;;;;;4.93;3.45;;;;;;;;;;5053180;28;20029;-64
2021/11/29 00:56:06;;;;;;;7.13;3.78;;;;;;;;;;5053157;28;20154;-64
2021/11/29 00:58:32;;;;;;;7.65;4.38;;;;;;;;;;5034907;28;20025;-65
2021/11/29 01:00:58;;;;;;;8.32;4.47;;;;;;;;;;5052896;28;20040;-64
2021/11/29 01:03:24;;;;;;;8.85;4.53;;;;;;;;;;5052913;28;20025;-64
2021/11/29 01:05:51;;;;;;;9.50;4.30;;;;;;;;;;5052764;28;20077;-65
2021/11/29 01:08:17;;;;;;;8.13;4.13;;;;;;;;;;5052315;28;20056;-64
2021/11/29 01:10:43;;;;;;;6.63;4.00;;;;;;;;;;5052516;28;20060;-64
2021/11/29 01:13:10;;;;;;;5.93;3.47;;;;;;;;;;5034803;28;20060;-65
2021/11/29 01:15:38;;;;;;;5.90;3.20;;;;;;;;;;5034967;28;20487;-65
2021/11/29 01:18:10;;;;;;;6.05;3.63;;;;;;;;;;5052694;28;20026;-63
2021/11/29 01:20:37;;;;;;;5.82;3.40;;;;;;;;;;5052773;28;20103;-66
2021/11/29 01:23:04;;;;;;;5.15;3.45;;;;;;;;;;5052716;28;20021;-67
2021/11/29 01:25:30;;;;;;;6.60;3.70;;;;;;;;;;5052738;28;20071;-66
2021/11/29 01:27:56;;;;;;;7.82;3.72;;;;;;;;;;5052364;28;20485;-67
2021/11/29 01:30:22;;;;;;;7.72;3.90;;;;;;;;;;5034739;28;20057;-65
2021/11/29 01:32:49;;;;;;;4.38;3.00;;;;;;;;;;5052336;28;20026;-65
2021/11/29 01:35:15;;;;;;;7.93;3.78;;;;;;;;;;5052594;28;20084;-65
2021/11/29 01:37:41;;;;;;;7.25;3.35;;;;;;;;;;5054487;28;20025;-66
2021/11/29 01:40:08;;;;;;;4.50;3.03;;;;;;;;;;5056381;28;20060;-64
2021/11/29 01:42:34;;;;;;;7.40;3.30;;;;;;;;;;5038471;28;20110;-65
2021/11/29 01:45:01;;;;;;;7.53;3.67;;;;;;;;;;5056248;28;20094;-65
2021/11/29 01:47:27;;;;;;;11.52;5.00;;;;;;;;;;5056285;28;20424;-65
2021/11/29 01:49:54;;;;;;;10.68;5.93;;;;;;;;;;5056319;28;20464;-65
2021/11/29 01:52:20;;;;;;;12.10;6.32;;;;;;;;;;5056207;28;20393;-64
2021/11/29 01:54:46;;;;;;;10.80;6.15;;;;;;;;;;5038272;28;20485;-64
2021/11/29 01:57:13;;;;;;;10.77;5.80;;;;;;;;;;5056119;28;20056;-65
2021/11/29 01:59:39;;;;;;;14.73;5.80;;;;;;;;;;5038135;28;20064;-64
2021/11/29 02:02:06;;;;;;;10.98;6.00;;;;;;;;;;5056040;28;20029;-65
2021/11/29 02:04:32;;;;;;;9.82;5.43;;;;;;;;;;5055632;28;20515;-64
2021/11/29 02:06:58;;;;;;;8.07;5.38;;;;;;;;;;5055976;28;20060;-64
2021/11/29 02:09:24;;;;;;;8.05;4.97;;;;;;;;;;5055833;28;20032;-64
2021/11/29 02:11:54;;;;;;;9.73;5.82;;;;;;;;;;5055851;28;20473;-64
2021/11/29 02:14:20;;;;;;;10.57;6.13;;;;;;;;;;5037833;28;20029;-65
2021/11/29 02:16:48;;;;;;;8.93;5.10;;;;;;;;;;5055745;28;20052;-64
2021/11/29 02:19:14;;;;;;;10.45;5.47;;;;;;;;;;5037679;28;20032;-65
2021/11/29 02:21:41;;;;;;;8.82;5.40;;;;;;;;;;5055718;28;20021;-64
2021/11/29 02:24:08;;;;;;;7.32;4.57;;;;;;;;;;5037682;28;20033;-65
2021/11/29 02:26:35;;;;;;;11.18;4.80;;;;;;;;;;5055512;28;20033;-65
2021/11/29 02:29:07;;;;;;;8.65;4.68;;;;;;;;;;5055783;28;20470;-66
2021/11/29 02:31:35;;;;;;;6.35;4.50;;;;;;;;;;5055538;28;20017;-65
2021/11/29 02:34:13;;;;;;;6.10;3.95;;;;;;;;;;5055434;28;20073;-65
2021/11/29 02:36:40;;;;;;;9.15;4.40;;;;;;;;;;5037401;28;20033;-65
2021/11/29 02:39:07;;;;;;;6.82;4.10;;;;;;;;;;5037448;28;20078;-65
2021/11/29 02:41:33;;;;;;;6.70;4.10;;;;;;;;;;5055341;28;20032;-65
2021/11/29 02:44:00;;;;;;;5.10;3.67;;;;;;;;;;5055496;28;20021;-66
2021/11/29 02:46:26;;;;;;;5.20;3.30;;;;;;;;;;5055177;28;20136;-64
2021/11/29 02:48:52;;;;;;;6.35;4.30;;;;;;;;;;5054797;28;20033;-64
2021/11/29 02:51:20;;;;;;;8.77;4.13;;;;;;;;;;5054821;28;20473;-65
2021/11/29 02:53:46;;;;;;;6.80;3.85;;;;;;;;;;5055098;28;20381;-65
2021/11/29 02:56:12;;;;;;;6.13;4.05;;;;;;;;;;5054750;28;20108;-65
2021/11/29 02:58:42;;;;;;;7.10;4.55;;;;;;;;;;5054995;28;20025;-67
2021/11/29 03:01:08;;;;;;;8.70;4.45;;;;;;;;;;5055006;28;20029;-66
2021/11/29 03:03:34;;;;;;;6.65;4.60;;;;;;;;;;5036943;28;20048;-66
2021/11/29 03:06:01;;;;;;;9.57;5.55;;;;;;;;;;5054359;28;20041;-66
2021/11/29 03:08:27;;;;;;;10.30;4.97;;;;;;;;;;5054806;28;20043;-64
2021/11/29 03:10:53;;;;;;;6.88;4.22;;;;;;;;;;5055094;28;20055;-64
2021/11/29 03:13:21;;;;;;;9.30;4.88;;;;;;;;;;5054935;28;20465;-65
2021/11/29 03:15:48;;;;;;;8.00;4.20;;;;;;;;;;5054363;28;20108;-66
2021/11/29 03:18:14;;;;;;;8.57;4.78;;;;;;;;;;5054612;28;20028;-65
2021/11/29 03:20:42;;;;;;;12.38;5.57;;;;;;;;;;5054608;28;20021;-65
2021/11/29 03:23:12;;;;;;;9.00;5.32;;;;;;;;;;5054504;28;20025;-66
2021/11/29 03:25:38;;;;;;;10.68;5.75;;;;;;;;;;5054414;28;20043;-67
2021/11/29 03:28:04;;;;;;;10.95;5.95;;;;;;;;;;5036472;28;20063;-64
2021/11/29 03:30:30;;;;;;;11.93;6.32;;;;;;;;;;5054428;28;20025;-67
2021/11/29 03:32:57;;;;;;;9.05;5.65;;;;;;;;;;5054343;28;20108;-64
2021/11/29 03:35:23;;;;;;;17.67;8.05;;;;;;;;;;5054272;28;20060;-65
2021/11/29 03:37:49;;;;;;;23.58;11.65;;;;;;;;;;5054244;28;20037;-65
2021/11/29 03:40:15;;;;;;;27.77;14.38;;;;;;;;;;5054121;28;20103;-63
2021/11/29 03:42:42;;;;;;;31.20;15.30;;;;;;;;;;5036227;28;20414;-64
2021/11/29 03:45:08;;;;;;;36.05;15.75;;;;;;;;;;5054002;28;20033;-66
2021/11/29 03:47:34;;;;;;;33.35;14.77;;;;;;;;;;5054035;28;20108;-66
2021/11/29 03:50:00;;;;;;;30.80;12.73;;;;;;;;;;5054016;28;20025;-67
2021/11/29 03:52:27;;;;;;;30.42;13.25;;;;;;;;;;5035997;28;20040;-66
2021/11/29 03:54:53;;;;;;;27.92;13.15;;;;;;;;;;5053897;28;20029;-67
2021/11/29 03:57:19;;;;;;;23.92;11.23;;;;;;;;;;5053862;28;20083;-68
2021/11/29 03:59:46;;;;;;;20.27;10.23;;;;;;;;;;5053121;28;20104;-65
2021/11/29 04:02:12;;;;;;;16.42;9.23;;;;;;;;;;5053823;28;20029;-68
2021/11/29 04:04:38;;;;;;;15.73;8.80;;;;;;;;;;5053456;28;20128;-65
2021/11/29 04:07:04;;;;;;;15.52;8.55;;;;;;;;;;5053740;28;20489;-69
2021/11/29 04:09:31;;;;;;;16.02;9.13;;;;;;;;;;5053876;28;20411;-66
2021/11/29 04:11:57;;;;;;;12.68;7.88;;;;;;;;;;5053610;28;20041;-67
2021/11/29 04:14:23;;;;;;;14.38;7.90;;;;;;;;;;5053557;28;20024;-66
2021/11/29 04:16:49;;;;;;;12.50;6.88;;;;;;;;;;5035547;28;20028;-66
2021/11/29 04:19:16;;;;;;;12.25;6.65;;;;;;;;;;5053452;28;20025;-66
2021/11/29 04:21:43;;;;;;;10.27;6.95;;;;;;;;;;5053496;28;20090;-65
2021/11/29 04:24:10;;;;;;;10.65;7.88;;;;;;;;;;5053385;28;20029;-66
2021/11/29 04:26:38;;;;;;;12.50;8.98;;;;;;;;;;5053302;28;20036;-67
2021/11/29 04:29:09;;;;;;;15.77;9.25;;;;;;;;;;5053310;28;20036;-67
2021/11/29 04:31:35;;;;;;;17.70;11.70;;;;;;;;;;5053346;28;20480;-69
2021/11/29 04:34:01;;;;;;;16.90;10.57;;;;;;;;;;5035326;28;20060;-66
2021/11/29 04:36:28;;;;;;;13.23;9.35;;;;;;;;;;5053185;28;20025;-65
2021/11/29 04:38:55;;;;;;;11.75;7.90;;;;;;;;;;5052912;28;20075;-67
2021/11/29 04:41:21;;;;;;;12.13;8.18;;;;;;;;;;5053100;28;20158;-65
2021/11/29 04:43:47;;;;;;;11.60;7.88;;;;;;;;;;5053363;28;20053;-66
2021/11/29 04:46:13;;;;;;;11.77;8.15;;;;;;;;;;5053047;28;20103;-65
2021/11/29 04:48:39;;;;;;;16.08;8.82;;;;;;;;;;5053075;28;20028;-64
2021/11/29 04:51:06;;;;;;;13.82;7.25;;;;;;;;;;5053045;28;20024;-66
2021/11/29 04:53:32;;;;;;;14.77;8.20;;;;;;;;;;5053005;28;20014;-67
2021/11/29 04:55:58;;;;;;;13.73;7.40;;;;;;;;;;5035052;28;20430;-65
2021/11/29 04:58:25;;;;;;;14.73;8.77;;;;;;;;;;5052949;28;20028;-66
2021/11/29 05:00:52;;;;;;;12.30;7.72;;;;;;;;;;5034733;28;20021;-63
2021/11/29 05:03:19;;;;;;;11.98;7.43;;;;;;;;;;5034958;28;20473;-63
2021/11/29 05:05:45;;;;;;;15.05;8.18;;;;;;;;;;5045623;28;20049;-65
2021/11/29 05:08:11;;;;;;;15.00;9.15;;;;;;;;;;5052930;28;20025;-64
2021/11/29 05:10:37;;;;;;;16.05;8.10;;;;;;;;;;5053051;28;20055;-63
2021/11/29 05:13:04;;;;;;;46.97;28.95;;;;;;;;;;5059881;28;20373;-65
2021/11/29 05:15:30;;;;;;;17.45;12.65;;;;;;;;;;5076595;28;20024;-63
2021/11/29 05:17:56;;;;;;;17.38;10.00;;;;;;;;;;5075525;28;20154;-64
2021/11/29 05:20:23;;;;;;;144.43;88.82;;;;;;;;;;5063490;28;20048;-63
2021/11/29 05:22:50;;;;;;;42.75;28.55;;;;;;;;;;5055220;28;20036;-64
2021/11/29 05:25:19;;;;;;;32.75;21.42;;;;;;;;;;5056511;28;20059;-63
2021/11/29 05:27:45;;;;;;;13.45;9.27;;;;;;;;;;5056617;28;20025;-63
2021/11/29 05:30:12;;;;;;;10.75;7.90;;;;;;;;;;5056567;28;20056;-64
2021/11/29 05:32:38;;;;;;;21.88;15.70;;;;;;;;;;5056134;28;20424;-64
2021/11/29 05:35:04;;;;;;;14.10;8.85;;;;;;;;;;5056138;28;20409;-63
2021/11/29 05:37:31;;;;;;;29.33;20.00;;;;;;;;;;5056189;28;20064;-65
2021/11/29 05:39:57;;;;;;;23.08;16.85;;;;;;;;;;5056455;28;20043;-64
2021/11/29 05:42:23;;;;;;;20.02;14.07;;;;;;;;;;5055080;28;20029;-65
2021/11/29 05:44:50;;;;;;;19.67;12.57;;;;;;;;;;5056185;28;20049;-64
2021/11/29 05:47:20;;;;;;;14.05;10.40;;;;;;;;;;5056241;28;20025;-64
2021/11/29 05:49:46;;;;;;;12.07;8.93;;;;;;;;;;5056142;28;20029;-63
2021/11/29 05:52:13;;;;;;;33.08;20.02;;;;;;;;;;5056267;28;20515;-64
2021/11/29 05:54:39;;;;;;;30.30;20.33;;;;;;;;;;5055997;28;20123;-63
2021/11/29 05:57:05;;;;;;;28.40;18.98;;;;;;;;;;5056055;28;20457;-64
2021/11/29 05:59:32;;;;;;;26.48;16.75;;;;;;;;;;5055709;28;20030;-64
2021/11/29 06:01:58;;;;;;;27.63;16.88;;;;;;;;;;5055899;28;20024;-64
2021/11/29 06:04:24;;;;;;;27.65;18.02;;;;;;;;;;5055472;28;20524;-65
2021/11/29 06:06:50;;;;;;;35.45;17.80;;;;;;;;;;5037534;28;20083;-65
2021/11/29 06:09:17;;;;;;;51.10;28.10;;;;;;;;;;5055756;28;20017;-64
2021/11/29 06:11:43;;;;;;;67.93;39.97;;;;;;;;;;5055716;28;20028;-65
2021/11/29 06:14:10;;;;;;;67.90;39.53;;;;;;;;;;5055735;28;20025;-64
2021/11/29 06:16:36;;;;;;;105.35;56.22;;;;;;;;;;5055347;28;20129;-65
2021/11/29 06:19:03;;;;;;;99.43;57.40;;;;;;;;;;5055629;28;20493;-63
2021/11/29 06:21:29;;;;;;;65.85;35.83;;;;;;;;;;5055408;28;20100;-63
2021/11/29 06:23:55;;;;;;;71.75;38.53;;;;;;;;;;5036822;28;20531;-64
2021/11/29 06:26:22;;;;;;;83.68;44.28;;;;;;;;;;5055396;28;20033;-64
2021/11/29 06:28:48;;;;;;;92.95;45.88;;;;;;;;;;5055347;28;20125;-63
2021/11/29 06:31:15;;;;;;;94.28;47.15;;;;;;;;;;5055335;28;20036;-64
2021/11/29 06:33:41;;;;;;;82.03;45.88;;;;;;;;;;5055630;28;20063;-64
2021/11/29 06:36:07;;;;;;;70.93;41.80;;;;;;;;;;5055035;28;20120;-64
2021/11/29 06:38:34;;;;;;;72.75;37.95;;;;;;;;;;5037322;28;20025;-64
2021/11/29 06:41:01;;;;;;;66.00;36.15;;;;;;;;;;5055229;28;20021;-64
2021/11/29 06:43:28;;;;;;;62.00;35.63;;;;;;;;;;5054918;28;20116;-63
2021/11/29 06:45:55;;;;;;;70.45;35.47;;;;;;;;;;5054906;28;20488;-64
2021/11/29 06:48:22;;;;;;;61.90;37.38;;;;;;;;;;5054752;28;20535;-64
2021/11/29 06:50:49;;;;;;;72.47;40.30;;;;;;;;;;5054910;28;20821;-64
2021/11/29 06:53:15;;;;;;;46.75;26.98;;;;;;;;;;5054938;28;20469;-64
2021/11/29 06:55:43;;;;;;;51.60;25.45;;;;;;;;;;5054911;28;20071;-64
2021/11/29 06:58:09;;;;;;;49.13;27.67;;;;;;;;;;5054657;28;20040;-63
2021/11/29 07:00:36;;;;;;;60.08;33.05;;;;;;;;;;5054541;28;20028;-64
2021/11/29 07:03:02;;;;;;;74.45;45.60;;;;;;;;;;5054839;28;20120;-64
2021/11/29 07:05:29;;;;;;;52.13;30.52;;;;;;;;;;5052776;28;20424;-65
2021/11/29 07:07:56;;;;;;;61.15;31.83;;;;;;;;;;5053354;28;20029;-64
2021/11/29 07:10:26;;;;;;;73.63;37.30;;;;;;;;;;5052790;28;20075;-64
2021/11/29 07:12:54;;;;;;;67.88;35.70;;;;;;;;;;5036367;28;20055;-65
2021/11/29 07:15:21;;;;;;;93.10;42.00;;;;;;;;;;5054220;28;20025;-65
2021/11/29 07:17:48;;;;;;;142.13;68.28;;;;;;;;;;5054185;28;20043;-64
2021/11/29 07:20:14;;;;;;;171.55;87.13;;;;;;;;;;5054259;28;20036;-64
2021/11/29 07:22:40;;;;;;;195.23;104.00;;;;;;;;;;5054871;28;20099;-64
2021/11/29 07:25:07;;;;;;;205.25;108.43;;;;;;;;;;5036473;28;20033;-65
2021/11/29 07:27:34;;;;;;;112.95;64.93;;;;;;;;;;5054373;28;20113;-64
2021/11/29 07:30:01;;;;;;;97.65;53.13;;;;;;;;;;5036410;28;20347;-64
2021/11/29 07:32:29;;;;;;;70.22;41.67;;;;;;;;;;5054274;28;20440;-64
2021/11/29 07:34:56;;;;;;;65.60;39.92;;;;;;;;;;5053143;28;20040;-63
2021/11/29 07:37:22;;;;;;;86.45;49.00;;;;;;;;;;5054182;28;20037;-64
2021/11/29 07:39:48;;;;;;;88.10;49.00;;;;;;;;;;5054168;28;20056;-64
2021/11/29 07:42:15;;;;;;;61.53;34.15;;;;;;;;;;5054072;28;20040;-64
2021/11/29 07:44:41;;;;;;;44.33;26.27;;;;;;;;;;5035984;28;20025;-64
2021/11/29 07:47:08;;;;;;;40.13;24.38;;;;;;;;;;5054027;28;20107;-64
2021/11/29 07:49:34;;;;;;;39.90;24.73;;;;;;;;;;5036048;28;20020;-65
2021/11/29 07:52:00;;;;;;;40.97;24.83;;;;;;;;;;5053930;28;20525;-64
2021/11/29 07:54:27;;;;;;;52.05;29.58;;;;;;;;;;5053899;28;20445;-63
2021/11/29 07:56:54;;;;;;;38.08;22.98;;;;;;;;;;5054125;28;20071;-64
2021/11/29 07:59:20;;;;;;;37.50;22.67;;;;;;;;;;5053775;28;20036;-63
2021/11/29 08:01:46;;;;;;;45.38;28.63;;;;;;;;;;5053927;28;20059;-64
2021/11/29 08:04:12;;;;;;;48.20;28.10;;;;;;;;;;5053964;28;20116;-64
2021/11/29 08:06:40;;;;;;;44.45;26.05;;;;;;;;;;5053109;28;20486;-65
2021/11/29 08:09:06;;;;;;;52.22;26.88;;;;;;;;;;5035559;28;20025;-63
2021/11/29 08:11:32;;;;;;;43.97;22.98;;;;;;;;;;5035492;28;20021;-64
2021/11/29 08:13:58;;;;;;;43.40;23.52;;;;;;;;;;5053797;28;20525;-63
2021/11/29 08:16:25;;;;;;;54.17;23.67;;;;;;;;;;5053442;28;20033;-65
2021/11/29 08:18:51;;;;;;;64.05;25.55;;;;;;;;;;5053724;28;20107;-64
2021/11/29 08:21:17;;;;;;;50.35;23.27;;;;;;;;;;5053312;28;20473;-64
2021/11/29 08:23:43;;;;;;;47.22;19.88;;;;;;;;;;5053615;28;20025;-64
2021/11/29 08:26:10;;;;;;;40.53;18.10;;;;;;;;;;5053175;28;20060;-65
2021/11/29 08:28:36;;;;;;;47.50;23.42;;;;;;;;;;5053342;28;20114;-64
2021/11/29 08:31:02;;;;;;;61.00;28.70;;;;;;;;;;5053219;28;20167;-65
2021/11/29 08:33:28;;;;;;;48.40;23.27;;;;;;;;;;5053228;28;20040;-65
2021/11/29 08:35:54;;;;;;;48.38;22.00;;;;;;;;;;5035143;28;20455;-65
2021/11/29 08:38:21;;;;;;;43.33;22.95;;;;;;;;;;5053374;28;20104;-64
2021/11/29 08:40:49;;;;;;;55.10;23.58;;;;;;;;;;5053107;28;20029;-64
2021/11/29 08:43:17;;;;;;;54.97;24.23;;;;;;;;;;5053153;28;20083;-64
2021/11/29 08:45:44;;;;;;;55.15;24.13;;;;;;;;;;5052493;28;20037;-65
2021/11/29 08:48:11;;;;;;;52.58;22.80;;;;;;;;;;5052653;28;20469;-66
2021/11/29 08:50:38;;;;;;;45.80;21.85;;;;;;;;;;5052662;28;20528;-65
2021/11/29 08:53:07;;;;;;;56.47;27.15;;;;;;;;;;5052949;28;20029;-65
2021/11/29 08:55:35;;;;;;;58.00;27.92;;;;;;;;;;5052786;28;20060;-65
2021/11/29 08:58:01;;;;;;;51.30;26.05;;;;;;;;;;5052839;28;20036;-65
2021/11/29 09:00:28;;;;;;;37.17;20.30;;;;;;;;;;5034995;28;20029;-65
2021/11/29 09:02:55;;;;;;;32.85;16.48;;;;;;;;;;5052891;28;20021;-64
2021/11/29 09:05:30;;;;;;;32.92;17.13;;;;;;;;;;5038704;28;20045;-64
2021/11/29 09:07:58;;;;;;;31.55;16.20;;;;;;;;;;5051166;28;20498;-64
2021/11/29 09:10:24;;;;;;;43.33;20.77;;;;;;;;;;5052364;28;20405;-66
2021/11/29 09:12:50;;;;;;;37.78;17.92;;;;;;;;;;5052811;28;20025;-65
2021/11/29 09:15:17;;;;;;;28.30;13.73;;;;;;;;;;5052540;28;20017;-64
2021/11/29 09:17:44;;;;;;;22.48;12.35;;;;;;;;;;5051294;28;20110;-65
2021/11/29 09:20:11;;;;;;;23.65;11.38;;;;;;;;;;5052729;28;20067;-65
2021/11/29 09:22:40;;;;;;;17.52;10.20;;;;;;;;;;5051212;28;20473;-65
2021/11/29 09:25:07;;;;;;;22.40;12.68;;;;;;;;;;5052676;28;20036;-65
2021/11/29 09:27:33;;;;;;;30.98;12.73;;;;;;;;;;5051293;28;20060;-65
2021/11/29 09:29:59;;;;;;;20.25;11.40;;;;;;;;;;5052604;28;20103;-66
2021/11/29 09:32:26;;;;;;;28.02;14.23;;;;;;;;;;5051264;28;20478;-65
2021/11/29 09:34:52;;;;;;;25.23;14.00;;;;;;;;;;5052779;28;20108;-66
2021/11/29 09:37:19;;;;;;;29.60;15.45;;;;;;;;;;5051219;28;20075;-66
2021/11/29 09:39:46;;;;;;;21.08;12.60;;;;;;;;;;5052566;28;20029;-66
2021/11/29 09:42:12;;;;;;;30.88;17.90;;;;;;;;;;5052480;28;20028;-66
2021/11/29 09:44:39;;;;;;;23.35;13.60;;;;;;;;;;5052641;28;20053;-65
2021/11/29 09:47:05;;;;;;;25.15;13.95;;;;;;;;;;5052579;28;20121;-65
2021/11/29 09:49:40;;;;;;;24.52;13.90;;;;;;;;;;5052457;28;20067;-66
2021/11/29 09:52:07;;;;;;;27.00;15.35;;;;;;;;;;5052392;28;20420;-65
2021/11/29 09:54:33;;;;;;;24.98;13.80;;;;;;;;;;5052439;28;20029;-67
2021/11/29 09:57:00;;;;;;;23.33;13.68;;;;;;;;;;5052347;28;20029;-65
2021/11/29 09:59:27;;;;;;;28.15;16.70;;;;;;;;;;5055286;28;20029;-65
2021/11/29 10:01:54;;;;;;;30.90;18.05;;;;;;;;;;5054996;28;20370;-67
2021/11/29 10:04:20;;;;;;;25.17;14.32;;;;;;;;;;5055882;28;20113;-66
2021/11/29 10:06:53;;;;;;;30.60;16.05;;;;;;;;;;5055866;28;20074;-65
2021/11/29 10:09:46;;;;;;;27.15;17.30;;;;;;;;;;5037794;28;20036;-65
2021/11/29 10:12:12;;;;;;;48.53;24.33;;;;;;;;;;5061316;28;20044;-65
2021/11/29 10:14:38;;;;;;;42.00;20.60;;;;;;;;;;5075988;28;20131;-65
2021/11/29 10:17:05;;;;;;;34.03;19.73;;;;;;;;;;5075634;28;20017;-65
2021/11/29 10:19:33;;;;;;;32.03;16.77;;;;;;;;;;5057409;28;20040;-65
2021/11/29 10:22:17;;;;;;;29.20;16.77;;;;;;;;;;5075578;28;20036;-65
2021/11/29 10:24:44;;;;;;;29.58;16.92;;;;;;;;;;5075590;28;20465;-65
2021/11/29 10:27:13;;;;;;;32.85;17.38;;;;;;;;;;5057489;28;20027;-69
2021/11/29 10:29:48;;;;;;;26.92;15.90;;;;;;;;;;5075578;28;20139;-65
2021/11/29 10:32:28;;;;;;;36.08;18.25;;;;;;;;;;5075540;28;20056;-64
2021/11/29 10:34:55;;;;;;;23.88;15.48;;;;;;;;;;5075751;28;20514;-66
2021/11/29 10:37:27;;;;;;;36.42;18.98;;;;;;;;;;5073947;28;20035;-63
2021/11/29 10:39:53;;;;;;;40.53;21.83;;;;;;;;;;5073723;28;20445;-63
2021/11/29 10:42:24;;;;;;;36.85;19.25;;;;;;;;;;5075228;28;20043;-63
2021/11/29 10:44:53;;;;;;;31.60;18.13;;;;;;;;;;5075491;28;20067;-63
2021/11/29 10:47:21;;;;;;;30.27;15.15;;;;;;;;;;5075097;28;20016;-63
2021/11/29 10:49:51;;;;;;;26.30;12.35;;;;;;;;;;5075096;28;20111;-63
2021/11/29 10:52:35;;;;;;;25.58;13.52;;;;;;;;;;5074822;28;20033;-63
2021/11/29 10:55:03;;;;;;;19.35;11.75;;;;;;;;;;5073627;28;20107;-64
2021/11/29 10:57:29;;;;;;;18.55;10.48;;;;;;;;;;5074282;28;20411;-63
2021/11/29 10:59:56;;;;;;;19.67;10.95;;;;;;;;;;5073887;28;20043;-65
2021/11/29 11:02:26;;;;;;;26.02;14.05;;;;;;;;;;5074891;28;20029;-65
2021/11/29 11:05:04;;;;;;;43.42;26.05;;;;;;;;;;5074783;28;20093;-65
2021/11/29 11:07:32;;;;;;;32.40;21.08;;;;;;;;;;5074873;28;20115;-64
2021/11/29 11:09:59;;;;;;;36.58;22.67;;;;;;;;;;5074515;28;20106;-65
2021/11/29 11:12:30;;;;;;;38.38;24.75;;;;;;;;;;5074714;28;20116;-64
2021/11/29 11:15:00;;;;;;;30.33;15.27;;;;;;;;;;5074773;28;20029;-64
2021/11/29 11:17:30;;;;;;;19.27;12.90;;;;;;;;;;5074562;28;20111;-64
2021/11/29 11:19:59;;;;;;;21.02;14.27;;;;;;;;;;5074363;28;20032;-64
2021/11/29 11:22:32;;;;;;;42.55;25.45;;;;;;;;;;5074221;28;20107;-64
2021/11/29 11:25:04;;;;;;;22.98;13.63;;;;;;;;;;5074339;28;20032;-64
2021/11/29 11:27:31;;;;;;;16.70;11.77;;;;;;;;;;5074149;28;20064;-64
2021/11/29 11:30:09;;;;;;;22.52;11.40;;;;;;;;;;5074585;28;20483;-64
2021/11/29 11:32:45;;;;;;;23.15;15.50;;;;;;;;;;5074236;28;20028;-64
2021/11/29 11:35:14;;;;;;;19.35;12.68;;;;;;;;;;5074179;28;20074;-64
2021/11/29 11:37:44;;;;;;;33.70;21.58;;;;;;;;;;5074139;28;20021;-65
2021/11/29 11:40:21;;;;;;;27.58;15.85;;;;;;;;;;5056005;28;20034;-65
2021/11/29 11:42:48;;;;;;;34.35;19.80;;;;;;;;;;5053916;28;20059;-66
2021/11/29 11:45:17;;;;;;;26.63;16.20;;;;;;;;;;5073663;28;20485;-65
2021/11/29 11:47:43;;;;;;;24.63;15.35;;;;;;;;;;5073591;28;20024;-65
2021/11/29 11:50:11;;;;;;;19.20;12.45;;;;;;;;;;5073801;28;20059;-66
2021/11/29 11:52:37;;;;;;;11.57;9.73;;;;;;;;;;5073767;28;20028;-66
2021/11/29 11:55:05;;;;;;;21.52;11.80;;;;;;;;;;5055939;28;20429;-67
2021/11/29 11:57:31;;;;;;;11.50;7.80;;;;;;;;;;5073603;28;20052;-66
2021/11/29 12:00:19;;;;;;;16.70;9.85;;;;;;;;;;5073428;28;20028;-66
2021/11/29 12:02:45;;;;;;;20.88;15.38;;;;;;;;;;5073339;28;20032;-67
2021/11/29 12:05:16;;;;;;;21.48;15.90;;;;;;;;;;5073211;28;20512;-66
2021/11/29 12:07:43;;;;;;;17.80;11.68;;;;;;;;;;5073443;28;20492;-66
2021/11/29 12:10:28;;;;;;;17.42;11.27;;;;;;;;;;5055192;28;20021;-67
2021/11/29 12:12:58;;;;;;;23.70;14.93;;;;;;;;;;5073201;28;20034;-66
2021/11/29 12:15:37;;;;;;;18.77;13.35;;;;;;;;;;5073548;28;20112;-64
2021/11/29 12:18:03;;;;;;;19.40;12.48;;;;;;;;;;5073372;28;20024;-67
2021/11/29 12:20:29;;;;;;;31.73;16.15;;;;;;;;;;5072697;28;20021;-66
2021/11/29 12:22:56;;;;;;;27.55;16.95;;;;;;;;;;5073004;28;20024;-66
2021/11/29 12:25:24;;;;;;;34.20;19.80;;;;;;;;;;5072968;28;20147;-64
2021/11/29 12:27:55;;;;;;;30.75;16.77;;;;;;;;;;5072856;28;20024;-66
2021/11/29 12:30:33;;;;;;;39.85;21.88;;;;;;;;;;5055219;28;20025;-63
2021/11/29 12:33:04;;;;;;;27.35;15.73;;;;;;;;;;5073100;28;20021;-64
2021/11/29 12:35:34;;;;;;;27.58;17.17;;;;;;;;;;5072675;28;20388;-66
2021/11/29 12:38:06;;;;;;;20.92;13.95;;;;;;;;;;5073247;28;20032;-67
2021/11/29 12:40:43;;;;;;;34.60;18.70;;;;;;;;;;5072801;28;20017;-67
2021/11/29 12:43:09;;;;;;;29.13;17.30;;;;;;;;;;5072734;28;20404;-64
2021/11/29 12:45:36;;;;;;;28.52;15.70;;;;;;;;;;5072899;28;20024;-63
2021/11/29 12:48:10;;;;;;;56.00;32.33;;;;;;;;;;5072998;28;20020;-64
2021/11/29 12:50:39;;;;;;;50.17;29.42;;;;;;;;;;5054941;28;20472;-65
2021/11/29 12:53:38;;;;;;;36.35;21.58;;;;;;;;;;5068046;28;20021;-65
2021/11/29 12:56:04;;;;;;;26.67;15.75;;;;;;;;;;4971454;28;20472;-65
2021/11/29 12:58:35;;;;;;;17.20;12.35;;;;;;;;;;4971629;28;20487;-67
2021/11/29 13:01:01;;;;;;;20.85;13.93;;;;;;;;;;4971528;28;20177;-67
2021/11/29 13:03:29;;;;;;;29.83;16.33;;;;;;;;;;4970883;28;20118;-65
2021/11/29 13:05:57;;;;;;;35.30;20.50;;;;;;;;;;4980411;28;20495;-65
2021/11/29 13:08:25;;;;;;;25.55;15.55;;;;;;;;;;5006507;28;20038;-68
2021/11/29 13:10:51;;;;;;;20.20;13.27;;;;;;;;;;4971246;28;20026;-67
2021/11/29 13:13:25;;;;;;;28.80;17.55;;;;;;;;;;4971443;28;20038;-66
2021/11/29 13:16:03;;;;;;;28.15;16.10;;;;;;;;;;4955276;28;20527;-68
2021/11/29 13:18:45;;;;;;;28.55;17.02;;;;;;;;;;4975640;28;20034;-67
2021/11/29 13:21:18;;;;;;;29.55;16.30;;;;;;;;;;4971024;28;20170;-66
2021/11/29 13:23:52;;;;;;;29.88;18.35;;;;;;;;;;4971281;28;20074;-66
2021/11/29 13:26:19;;;;;;;36.67;20.55;;;;;;;;;;4971206;28;20047;-65
2021/11/29 13:28:49;;;;;;;33.80;20.33;;;;;;;;;;4970979;28;20027;-66
2021/11/29 13:31:15;;;;;;;33.45;20.13;;;;;;;;;;4973696;28;20038;-67
2021/11/29 13:33:42;;;;;;;38.33;19.77;;;;;;;;;;5056007;28;20029;-69
2021/11/29 13:36:09;;;;;;;33.97;18.67;;;;;;;;;;5056300;28;20025;-66
2021/11/29 13:38:38;;;;;;;51.60;30.88;;;;;;;;;;5056262;28;20055;-66
2021/11/29 13:41:05;;;;;;;42.75;23.23;;;;;;;;;;5056239;28;20036;-66
2021/11/29 13:43:31;;;;;;;45.22;23.13;;;;;;;;;;5056107;28;20350;-68
2021/11/29 13:45:57;;;;;;;41.25;18.50;;;;;;;;;;5054780;28;20102;-67
2021/11/29 13:48:25;;;;;;;29.63;19.45;;;;;;;;;;5056078;28;20426;-65
2021/11/29 13:50:54;;;;;;;26.73;16.90;;;;;;;;;;5055867;28;20029;-65
2021/11/29 13:53:32;;;;;;;32.13;18.08;;;;;;;;;;5056041;28;20025;-69
2021/11/29 13:55:59;;;;;;;36.38;20.33;;;;;;;;;;5054676;28;20059;-66
2021/11/29 13:58:29;;;;;;;33.95;20.02;;;;;;;;;;5055862;28;20028;-64
2021/11/29 14:00:57;;;;;;;38.50;22.67;;;;;;;;;;5055874;28;20025;-63
2021/11/29 14:03:28;;;;;;;32.85;20.23;;;;;;;;;;5055690;28;20025;-66
2021/11/29 14:05:59;;;;;;;39.13;20.30;;;;;;;;;;5055705;28;20071;-67
2021/11/29 14:08:30;;;;;;;95.13;47.33;;;;;;;;;;5055766;28;20070;-69
2021/11/29 14:10:58;;;;;;;33.15;19.67;;;;;;;;;;5055765;28;20246;-65
2021/11/29 14:13:35;;;;;;;32.10;19.45;;;;;;;;;;5058175;28;20028;-64
2021/11/29 14:16:08;;;;;;;38.35;20.92;;;;;;;;;;5060273;28;20021;-65
2021/11/29 14:18:40;;;;;;;37.13;22.55;;;;;;;;;;5075459;28;20016;-65
2021/11/29 14:21:08;;;;;;;38.78;22.52;;;;;;;;;;5075563;28;20025;-65
2021/11/29 14:23:37;;;;;;;42.75;24.33;;;;;;;;;;5075370;28;20017;-64
2021/11/29 14:26:03;;;;;;;45.70;26.23;;;;;;;;;;5075761;28;20060;-64
2021/11/29 14:28:30;;;;;;;49.58;28.08;;;;;;;;;;5075503;28;20028;-64